createdAt,value
2019-03-06T00:00:14.056Z,22.30
2019-03-06T00:02:40.643Z,20.60
2019-03-06T00:05:07.087Z,21.20
2019-03-06T00:07:33.561Z,22.60
2019-03-06T00:09:59.916Z,19.40
2019-03-06T00:12:26.281Z,22.07
2019-03-06T00:14:52.628Z,18.40
2019-03-06T00:17:19.012Z,22.80
2019-03-06T00:19:45.363Z,18.60
2019-03-06T00:22:11.946Z,20.10
2019-03-06T00:24:38.493Z,18.67
2019-03-06T00:27:05.163Z,19.70
2019-03-06T00:29:31.538Z,16.10
2019-03-06T00:31:57.911Z,15.47
2019-03-06T00:34:24.360Z,15.70
2019-03-06T00:36:50.944Z,13.57
2019-03-06T00:39:17.500Z,13.70
2019-03-06T00:41:44.307Z,15.67
2019-03-06T00:44:10.756Z,12.13
2019-03-06T00:46:37.217Z,15.17
2019-03-06T00:49:03.686Z,15.27
2019-03-06T00:51:30.135Z,14.40
2019-03-06T00:53:56.519Z,14.30
2019-03-06T00:56:23.163Z,13.80
2019-03-06T00:58:49.648Z,14.37
2019-03-06T01:01:16.211Z,16.20
2019-03-06T01:03:42.648Z,15.47
2019-03-06T01:06:09.095Z,14.77
2019-03-06T01:08:35.559Z,16.73
2019-03-06T01:11:02.314Z,13.77
2019-03-06T01:13:28.783Z,13.73
2019-03-06T01:15:55.144Z,17.77
2019-03-06T01:18:21.713Z,16.90
2019-03-06T01:20:48.068Z,14.87
2019-03-06T01:23:14.625Z,13.90
2019-03-06T01:25:41.397Z,14.50
2019-03-06T01:28:07.932Z,16.80
2019-03-06T01:30:34.399Z,15.37
2019-03-06T01:33:02.664Z,14.50
2019-03-06T01:35:30.112Z,15.83
2019-03-06T01:37:58.510Z,15.43
2019-03-06T01:40:26.910Z,14.40
2019-03-06T01:42:55.299Z,14.37
2019-03-06T01:45:22.028Z,15.07
2019-03-06T01:47:48.475Z,14.20
2019-03-06T01:50:14.855Z,13.70
2019-03-06T01:52:41.702Z,14.90
2019-03-06T01:55:09.615Z,17.07
2019-03-06T01:57:35.963Z,17.17
2019-03-06T02:00:03.832Z,16.47
2019-03-06T02:02:30.299Z,15.07
2019-03-06T02:04:56.925Z,13.77
2019-03-06T02:07:23.559Z,13.63
2019-03-06T02:09:49.931Z,14.93
2019-03-06T02:12:16.387Z,16.37
2019-03-06T02:14:42.780Z,18.87
2019-03-06T02:17:09.223Z,18.93
2019-03-06T02:19:35.782Z,19.13
2019-03-06T02:22:02.640Z,17.40
2019-03-06T02:24:29.090Z,17.63
2019-03-06T02:26:55.565Z,14.83
2019-03-06T02:29:22.012Z,13.57
2019-03-06T02:31:48.370Z,13.13
2019-03-06T02:34:17.464Z,15.43
2019-03-06T02:36:44.048Z,17.17
2019-03-06T02:39:10.605Z,18.93
2019-03-06T02:41:37.104Z,19.87
2019-03-06T02:44:03.631Z,20.90
2019-03-06T02:46:30.001Z,20.30
2019-03-06T02:48:56.555Z,19.63
2019-03-06T02:51:22.908Z,21.03
2019-03-06T02:53:49.278Z,21.60
2019-03-06T02:56:15.653Z,19.90
2019-03-06T02:58:44.355Z,20.67
2019-03-06T03:01:12.793Z,23.27
2019-03-06T03:03:40.845Z,24.93
2019-03-06T03:06:09.208Z,21.70
2019-03-06T03:08:35.751Z,21.70
2019-03-06T03:11:02.417Z,20.43
2019-03-06T03:13:28.899Z,20.40
2019-03-06T03:15:55.349Z,21.17
2019-03-06T03:18:21.815Z,20.23
2019-03-06T03:20:48.364Z,19.27
2019-03-06T03:23:14.846Z,21.00
2019-03-06T03:25:41.287Z,21.10
2019-03-06T03:28:07.762Z,21.50
2019-03-06T03:30:34.218Z,20.43
2019-03-06T03:33:00.689Z,18.13
2019-03-06T03:35:27.145Z,21.77
2019-03-06T03:37:53.919Z,21.63
2019-03-06T03:40:20.419Z,21.87
2019-03-06T03:42:47.072Z,23.33
2019-03-06T03:45:14.918Z,22.77
2019-03-06T03:47:41.387Z,22.10
2019-03-06T03:50:08.440Z,22.07
2019-03-06T03:52:34.924Z,25.60
2019-03-06T03:55:01.412Z,24.40
2019-03-06T03:57:27.955Z,21.90
2019-03-06T03:59:55.798Z,25.80
2019-03-06T04:02:22.422Z,25.27
2019-03-06T04:04:48.898Z,24.03
2019-03-06T04:07:15.351Z,26.50
2019-03-06T04:09:41.915Z,28.27
2019-03-06T04:12:08.259Z,24.50
2019-03-06T04:14:34.724Z,24.73
2019-03-06T04:17:01.175Z,25.47
2019-03-06T04:19:27.541Z,23.27
2019-03-06T04:21:53.883Z,22.77
2019-03-06T04:24:20.356Z,22.73
2019-03-06T04:26:46.735Z,22.10
2019-03-06T04:29:13.204Z,22.10
2019-03-06T04:31:39.555Z,24.07
2019-03-06T04:34:06.031Z,22.67
2019-03-06T04:36:32.477Z,21.63
2019-03-06T04:38:58.943Z,20.03
2019-03-06T04:41:25.390Z,22.13
2019-03-06T04:43:51.764Z,21.03
2019-03-06T04:46:18.116Z,20.93
2019-03-06T04:48:44.455Z,19.70
2019-03-06T04:51:12.959Z,23.70
2019-03-06T04:53:39.394Z,17.73
2019-03-06T04:56:05.997Z,18.10
2019-03-06T04:58:32.339Z,18.70
2019-03-06T05:00:58.762Z,19.40
2019-03-06T05:03:25.212Z,18.53
2019-03-06T05:05:51.587Z,18.50
2019-03-06T05:08:18.044Z,20.03
2019-03-06T05:10:44.916Z,15.13
2019-03-06T05:13:11.290Z,17.80
2019-03-06T05:15:37.777Z,15.23
2019-03-06T05:18:06.129Z,17.30
2019-03-06T05:20:32.491Z,16.07
2019-03-06T05:22:58.964Z,16.77
2019-03-06T05:25:25.737Z,16.60
2019-03-06T05:27:52.098Z,16.87
2019-03-06T05:30:20.443Z,16.13
2019-03-06T05:32:48.121Z,18.87
2019-03-06T05:35:14.491Z,15.70
2019-03-06T05:37:42.843Z,16.80
2019-03-06T05:40:09.520Z,16.87
2019-03-06T05:42:35.979Z,19.40
2019-03-06T05:45:03.635Z,15.97
2019-03-06T05:47:30.015Z,17.30
2019-03-06T05:49:56.482Z,17.97
2019-03-06T05:52:23.053Z,19.83
2019-03-06T05:54:49.526Z,18.37
2019-03-06T05:57:15.995Z,16.07
2019-03-06T05:59:42.380Z,18.70
2019-03-06T06:02:08.839Z,23.90
2019-03-06T06:04:35.209Z,18.60
2019-03-06T06:07:01.598Z,19.53
2019-03-06T06:09:27.947Z,24.97
2019-03-06T06:11:54.423Z,21.93
2019-03-06T06:14:20.876Z,23.93
2019-03-06T06:16:47.350Z,25.13
2019-03-06T06:19:13.795Z,22.43
2019-03-06T06:21:42.192Z,23.20
2019-03-06T06:24:09.539Z,22.33
2019-03-06T06:26:35.915Z,20.43
2019-03-06T06:29:02.371Z,20.90
2019-03-06T06:31:28.742Z,21.83
2019-03-06T06:33:55.099Z,20.67
2019-03-06T06:36:21.462Z,19.83
2019-03-06T06:38:48.017Z,21.47
2019-03-06T06:41:14.463Z,20.90
2019-03-06T06:43:41.023Z,20.67
2019-03-06T06:46:07.668Z,22.67
2019-03-06T06:48:34.184Z,21.93
2019-03-06T06:51:02.559Z,25.37
2019-03-06T06:53:29.134Z,25.70
2019-03-06T06:55:57.503Z,30.70
2019-03-06T06:58:31.256Z,27.67
2019-03-06T07:00:56.031Z,30.40
2019-03-06T07:03:29.274Z,27.93
2019-03-06T07:05:57.523Z,32.23
2019-03-06T07:08:25.931Z,33.77
2019-03-06T07:10:54.292Z,31.07
2019-03-06T07:13:22.675Z,36.70
2019-03-06T07:15:51.026Z,31.97
2019-03-06T07:18:19.302Z,33.40
2019-03-06T07:20:47.662Z,30.87
2019-03-06T07:23:17.158Z,32.63
2019-03-06T07:25:47.299Z,27.60
2019-03-06T07:28:16.113Z,32.40
2019-03-06T07:30:44.442Z,32.33
2019-03-06T07:33:12.844Z,26.50
2019-03-06T07:35:42.998Z,29.70
2019-03-06T07:38:09.886Z,25.83
2019-03-06T07:40:38.444Z,26.30
2019-03-06T07:43:06.848Z,30.50
2019-03-06T07:45:35.198Z,28.03
2019-03-06T07:48:03.555Z,23.57
2019-03-06T07:50:31.950Z,24.00
2019-03-06T07:53:02.400Z,26.07
2019-03-06T07:55:30.699Z,24.33
2019-03-06T07:58:02.080Z,23.87
2019-03-06T08:00:28.547Z,24.37
2019-03-06T08:02:56.799Z,19.70
2019-03-06T08:05:23.269Z,21.90
2019-03-06T08:07:50.574Z,20.53
2019-03-06T08:10:19.071Z,17.43
2019-03-06T08:12:47.415Z,15.87
2019-03-06T08:15:13.899Z,14.10
2019-03-06T08:17:42.351Z,13.20
2019-03-06T08:20:10.743Z,14.83
2019-03-06T08:22:39.091Z,11.40
2019-03-06T08:25:07.838Z,11.50
2019-03-06T08:27:34.225Z,12.83
2019-03-06T08:30:00.792Z,10.40
2019-03-06T08:32:28.769Z,10.97
2019-03-06T08:34:55.134Z,9.27
2019-03-06T08:37:21.490Z,9.37
2019-03-06T08:39:47.879Z,7.70
2019-03-06T08:42:14.227Z,9.53
2019-03-06T08:44:40.985Z,7.33
2019-03-06T08:47:09.267Z,7.30
2019-03-06T08:49:37.520Z,7.67
2019-03-06T08:52:05.799Z,6.67
2019-03-06T08:54:39.978Z,8.23
2019-03-06T08:57:08.476Z,6.33
2019-03-06T08:59:36.736Z,6.73
2019-03-06T09:02:03.206Z,4.90
2019-03-06T09:04:30.087Z,7.77
2019-03-06T09:06:57.500Z,4.10
2019-03-06T09:09:26.155Z,6.47
2019-03-06T09:11:54.647Z,3.77
2019-03-06T09:14:23.010Z,5.07
2019-03-06T09:16:51.279Z,4.57
2019-03-06T09:19:19.583Z,3.50
2019-03-06T09:21:48.124Z,5.07
2019-03-06T09:24:16.373Z,4.37
2019-03-06T09:26:44.786Z,3.50
2019-03-06T09:29:13.023Z,6.63
2019-03-06T09:31:41.325Z,5.43
2019-03-06T09:34:09.683Z,3.87
2019-03-06T09:36:40.848Z,3.47
2019-03-06T09:39:11.042Z,5.53
2019-03-06T09:41:39.301Z,6.23
2019-03-06T09:44:07.688Z,4.03
2019-03-06T09:46:36.232Z,3.77
2019-03-06T09:49:11.089Z,4.20
2019-03-06T09:51:34.787Z,5.97
2019-03-06T09:54:05.970Z,4.80
2019-03-06T09:56:34.313Z,2.60
2019-03-06T09:59:03.229Z,3.98
2019-03-06T10:01:31.668Z,3.05
2019-03-06T10:04:00.430Z,3.98
2019-03-06T10:06:28.708Z,4.03
2019-03-06T10:08:56.996Z,3.77
2019-03-06T10:11:25.559Z,3.98
2019-03-06T10:13:53.844Z,3.70
2019-03-06T10:16:23.282Z,3.52
2019-03-06T10:18:51.894Z,2.87
2019-03-06T10:21:18.251Z,4.20
2019-03-06T10:23:44.642Z,3.77
2019-03-06T10:26:11.002Z,4.33
2019-03-06T10:28:37.385Z,5.45
2019-03-06T10:31:04.266Z,2.90
2019-03-06T10:33:30.712Z,3.42
2019-03-06T10:35:57.395Z,4.17
2019-03-06T10:38:23.861Z,2.95
2019-03-06T10:40:50.314Z,5.70
2019-03-06T10:43:16.671Z,4.92
2019-03-06T10:45:43.136Z,3.17
2019-03-06T10:48:09.704Z,3.40
2019-03-06T10:50:36.281Z,5.12
2019-03-06T10:53:02.755Z,4.15
2019-03-06T10:55:29.392Z,4.30
2019-03-06T10:57:56.135Z,5.25
2019-03-06T11:00:25.450Z,2.95
2019-03-06T11:02:56.774Z,4.85
2019-03-06T11:05:25.123Z,2.58
2019-03-06T11:07:52.483Z,2.85
2019-03-06T11:10:23.809Z,2.95
2019-03-06T11:12:47.307Z,5.00
2019-03-06T11:15:15.790Z,3.87
2019-03-06T11:17:42.500Z,4.87
2019-03-06T11:20:11.100Z,4.78
2019-03-06T11:22:37.575Z,5.97
2019-03-06T11:25:06.019Z,2.60
2019-03-06T11:27:32.481Z,3.33
2019-03-06T11:29:59.043Z,3.42
2019-03-06T11:32:25.916Z,3.52
2019-03-06T11:34:52.383Z,3.00
2019-03-06T11:37:18.970Z,2.58
2019-03-06T11:39:45.527Z,2.95
2019-03-06T11:42:12.107Z,2.40
2019-03-06T11:44:38.555Z,2.55
2019-03-06T11:47:05.034Z,2.22
2019-03-06T11:49:31.501Z,2.30
2019-03-06T11:51:58.077Z,2.52
2019-03-06T11:54:24.551Z,1.60
2019-03-06T11:56:51.043Z,2.02
2019-03-06T11:59:18.152Z,1.82
2019-03-06T12:01:48.345Z,1.98
2019-03-06T12:04:13.829Z,3.62
2019-03-06T12:06:40.243Z,3.42
2019-03-06T12:09:08.529Z,1.50
2019-03-06T12:11:34.919Z,2.02
2019-03-06T12:14:01.369Z,3.25
2019-03-06T12:16:27.772Z,3.35
2019-03-06T12:18:54.139Z,3.05
2019-03-06T12:21:20.737Z,2.25
2019-03-06T12:23:47.301Z,1.67
2019-03-06T12:26:13.655Z,3.02
2019-03-06T12:28:40.228Z,2.85
2019-03-06T12:31:07.803Z,2.20
2019-03-06T12:33:34.284Z,3.50
2019-03-06T12:36:00.676Z,1.70
2019-03-06T12:38:27.227Z,2.65
2019-03-06T12:40:53.872Z,3.37
2019-03-06T12:43:20.331Z,2.87
2019-03-06T12:45:51.701Z,2.17
2019-03-06T12:48:18.273Z,2.45
2019-03-06T12:50:53.982Z,4.22
2019-03-06T12:53:13.534Z,3.22
2019-03-06T12:55:40.014Z,1.47
2019-03-06T12:58:06.583Z,2.30
2019-03-06T13:00:33.476Z,2.45
2019-03-06T13:02:59.848Z,1.57
2019-03-06T13:05:26.312Z,2.70
2019-03-06T13:07:52.691Z,4.35
2019-03-06T13:10:19.443Z,2.37
2019-03-06T13:12:46.935Z,2.20
2019-03-06T13:15:14.293Z,3.20
2019-03-06T13:17:40.980Z,2.77
2019-03-06T13:20:09.002Z,3.05
2019-03-06T13:22:35.787Z,3.27
2019-03-06T13:25:02.797Z,5.12
2019-03-06T13:27:29.373Z,1.57
2019-03-06T13:29:55.888Z,6.17
2019-03-06T13:32:24.239Z,2.77
2019-03-06T13:34:52.665Z,3.77
2019-03-06T13:37:19.272Z,2.67
2019-03-06T13:39:45.845Z,2.55
2019-03-06T13:42:12.302Z,2.55
2019-03-06T13:44:38.724Z,2.00
2019-03-06T13:47:05.075Z,1.95
2019-03-06T13:49:33.219Z,2.83
2019-03-06T13:51:59.580Z,1.70
2019-03-06T13:54:26.288Z,2.45
2019-03-06T13:56:52.854Z,1.82
2019-03-06T13:59:19.318Z,2.58
2019-03-06T14:01:45.875Z,1.15
2019-03-06T14:04:12.248Z,3.33
2019-03-06T14:06:38.620Z,1.25
2019-03-06T14:09:06.304Z,2.95
2019-03-06T14:11:32.765Z,2.50
2019-03-06T14:13:59.355Z,3.05
2019-03-06T14:16:25.704Z,4.30
2019-03-06T14:18:52.263Z,2.10
2019-03-06T14:21:19.651Z,1.32
2019-03-06T14:23:46.196Z,3.90
2019-03-06T14:26:12.586Z,3.55
2019-03-06T14:28:39.061Z,2.25
2019-03-06T14:31:05.648Z,4.30
2019-03-06T14:33:31.997Z,1.45
2019-03-06T14:36:01.359Z,1.92
2019-03-06T14:38:27.811Z,2.92
2019-03-06T14:40:54.279Z,2.00
2019-03-06T14:43:20.878Z,1.62
2019-03-06T14:45:47.323Z,3.87
2019-03-06T14:48:13.977Z,2.15
2019-03-06T14:50:40.639Z,2.17
2019-03-06T14:53:07.092Z,2.05
2019-03-06T14:55:34.282Z,3.50
2019-03-06T14:58:00.846Z,2.55
2019-03-06T15:00:27.315Z,4.12
2019-03-06T15:02:53.667Z,2.52
2019-03-06T15:05:20.562Z,2.83
2019-03-06T15:07:47.028Z,1.67
2019-03-06T15:10:15.339Z,3.33
2019-03-06T15:12:41.899Z,2.00
2019-03-06T15:15:10.147Z,1.87
2019-03-06T15:17:36.679Z,2.08
2019-03-06T15:20:03.034Z,2.47
2019-03-06T15:22:38.200Z,3.25
2019-03-06T15:24:57.802Z,2.30
2019-03-06T15:27:24.180Z,4.53
2019-03-06T15:29:50.929Z,5.25
2019-03-06T15:32:17.437Z,1.22
2019-03-06T15:34:43.862Z,3.05
2019-03-06T15:37:10.539Z,2.25
2019-03-06T15:39:44.542Z,3.10
2019-03-06T15:42:05.579Z,1.87
2019-03-06T15:44:32.294Z,3.60
2019-03-06T15:46:58.864Z,2.58
2019-03-06T15:49:25.223Z,2.92
2019-03-06T15:51:51.615Z,3.90
2019-03-06T15:54:18.212Z,2.00
2019-03-06T15:56:44.592Z,1.80
2019-03-06T15:59:14.984Z,1.30
2019-03-06T16:01:39.468Z,1.95
2019-03-06T16:04:06.035Z,3.08
2019-03-06T16:06:32.599Z,5.05
2019-03-06T16:08:58.983Z,5.83
2019-03-06T16:11:25.459Z,3.67
2019-03-06T16:13:51.837Z,4.08
2019-03-06T16:16:18.191Z,1.20
2019-03-06T16:18:44.990Z,2.65
2019-03-06T16:21:11.860Z,1.67
2019-03-06T16:23:38.333Z,2.95
2019-03-06T16:26:04.807Z,2.50
2019-03-06T16:28:31.191Z,3.30
2019-03-06T16:30:57.662Z,4.22
2019-03-06T16:33:24.241Z,2.98
2019-03-06T16:35:50.818Z,3.87
2019-03-06T16:38:17.383Z,4.35
2019-03-06T16:40:45.551Z,10.17
2019-03-06T16:43:12.334Z,3.60
2019-03-06T16:45:39.568Z,8.00
2019-03-06T16:48:06.520Z,4.80
2019-03-06T16:50:32.999Z,5.73
2019-03-06T16:52:59.531Z,4.30
2019-03-06T16:55:26.119Z,2.87
2019-03-06T16:57:52.991Z,3.07
2019-03-06T17:00:21.356Z,4.57
2019-03-06T17:02:48.018Z,4.77
2019-03-06T17:05:16.295Z,2.80
2019-03-06T17:07:42.876Z,4.07
2019-03-06T17:10:09.684Z,4.90
2019-03-06T17:12:36.160Z,5.03
2019-03-06T17:15:03.783Z,4.37
2019-03-06T17:17:30.275Z,6.77
2019-03-06T17:19:56.735Z,9.93
2019-03-06T17:22:23.344Z,7.20
2019-03-06T17:24:49.831Z,4.17
2019-03-06T17:27:16.281Z,4.13
2019-03-06T17:29:42.754Z,5.30
2019-03-06T17:32:09.330Z,4.60
2019-03-06T17:34:35.815Z,3.30
2019-03-06T17:37:02.359Z,3.77
2019-03-06T17:39:28.838Z,8.87
2019-03-06T17:41:55.461Z,5.03
2019-03-06T17:44:21.819Z,4.77
2019-03-06T17:46:50.471Z,3.47
2019-03-06T17:49:16.936Z,4.30
2019-03-06T17:51:43.438Z,5.70
2019-03-06T17:54:09.984Z,4.80
2019-03-06T17:56:36.364Z,3.17
2019-03-06T17:59:03.374Z,3.87
2019-03-06T18:01:30.027Z,3.40
2019-03-06T18:03:58.401Z,2.67
2019-03-06T18:06:25.125Z,15.07
2019-03-06T18:08:51.759Z,3.13
2019-03-06T18:11:18.140Z,4.93
2019-03-06T18:13:44.520Z,3.63
2019-03-06T18:16:10.906Z,3.10
2019-03-06T18:18:37.447Z,3.33
2019-03-06T18:21:03.943Z,4.53
2019-03-06T18:23:30.603Z,4.17
2019-03-06T18:25:57.196Z,4.07
2019-03-06T18:28:23.659Z,4.40
2019-03-06T18:30:50.135Z,4.27
2019-03-06T18:33:16.888Z,3.63
2019-03-06T18:35:44.711Z,4.37
2019-03-06T18:38:11.173Z,4.60
2019-03-06T18:40:37.695Z,2.83
2019-03-06T18:43:04.843Z,3.30
2019-03-06T18:45:31.200Z,2.80
2019-03-06T18:47:57.773Z,4.73
2019-03-06T18:50:24.315Z,3.03
2019-03-06T18:52:50.905Z,2.60
2019-03-06T18:55:17.525Z,4.57
2019-03-06T18:57:44.100Z,3.87
2019-03-06T19:00:12.441Z,2.93
2019-03-06T19:02:38.819Z,5.17
2019-03-06T19:05:06.678Z,3.60
2019-03-06T19:07:33.499Z,5.83
2019-03-06T19:10:00.040Z,2.73
2019-03-06T19:12:26.505Z,2.90
2019-03-06T19:14:53.143Z,3.63
2019-03-06T19:17:20.246Z,4.53
2019-03-06T19:19:47.080Z,4.97
2019-03-06T19:22:13.551Z,3.70
2019-03-06T19:24:40.112Z,4.90
2019-03-06T19:27:06.678Z,4.70
2019-03-06T19:29:33.234Z,5.73
2019-03-06T19:31:59.651Z,4.07
2019-03-06T19:34:26.103Z,5.13
2019-03-06T19:36:52.591Z,5.20
2019-03-06T19:39:19.240Z,4.17
2019-03-06T19:41:45.583Z,6.17
2019-03-06T19:44:12.165Z,4.60
2019-03-06T19:46:38.643Z,5.67
2019-03-06T19:49:05.223Z,3.10
2019-03-06T19:51:31.788Z,3.97
2019-03-06T19:53:59.745Z,3.97
2019-03-06T19:56:26.219Z,4.97
2019-03-06T19:58:52.582Z,6.63
2019-03-06T20:01:18.927Z,5.27
2019-03-06T20:03:45.315Z,9.70
2019-03-06T20:06:11.771Z,5.23
2019-03-06T20:08:38.347Z,5.47
2019-03-06T20:11:04.894Z,6.13
2019-03-06T20:13:31.467Z,5.10
2019-03-06T20:15:57.919Z,4.53
2019-03-06T20:18:24.614Z,4.57
2019-03-06T20:20:52.280Z,5.50
2019-03-06T20:23:18.926Z,5.57
2019-03-06T20:25:45.494Z,5.13
2019-03-06T20:28:11.876Z,5.03
2019-03-06T20:30:38.436Z,6.10
2019-03-06T20:33:05.176Z,6.30
2019-03-06T20:35:31.643Z,7.10
2019-03-06T20:37:58.312Z,4.73
2019-03-06T20:40:24.886Z,6.63
2019-03-06T20:42:51.266Z,5.77
2019-03-06T20:45:18.128Z,5.37
2019-03-06T20:47:44.586Z,4.87
2019-03-06T20:50:12.160Z,6.47
2019-03-06T20:52:38.833Z,6.10
2019-03-06T20:55:06.924Z,5.03
2019-03-06T20:57:33.286Z,5.97
2019-03-06T20:59:59.783Z,6.80
2019-03-06T21:02:26.140Z,5.77
2019-03-06T21:04:52.912Z,6.80
2019-03-06T21:07:19.371Z,6.33
2019-03-06T21:09:45.863Z,6.73
2019-03-06T21:12:12.313Z,5.77
2019-03-06T21:14:38.784Z,9.23
2019-03-06T21:17:05.139Z,7.90
2019-03-06T21:19:31.778Z,4.63
2019-03-06T21:21:58.356Z,7.50
2019-03-06T21:24:24.921Z,4.20
2019-03-06T21:26:51.508Z,6.23
2019-03-06T21:29:17.962Z,6.00
2019-03-06T21:31:44.608Z,10.30
2019-03-06T21:34:11.155Z,5.10
2019-03-06T21:36:37.891Z,5.73
2019-03-06T21:39:06.302Z,5.53
2019-03-06T21:41:32.775Z,7.07
2019-03-06T21:43:59.317Z,6.57
2019-03-06T21:46:25.789Z,5.90
2019-03-06T21:48:52.251Z,5.77
2019-03-06T21:51:18.846Z,7.67
2019-03-06T21:53:45.416Z,5.77
2019-03-06T21:56:11.836Z,6.20
2019-03-06T21:58:38.425Z,5.77
2019-03-06T22:01:04.997Z,5.60
2019-03-06T22:03:31.863Z,6.17
2019-03-06T22:05:58.341Z,5.50
2019-03-06T22:08:24.827Z,7.43
2019-03-06T22:10:51.427Z,7.80
2019-03-06T22:13:17.843Z,6.27
2019-03-06T22:15:44.282Z,8.70
2019-03-06T22:18:10.857Z,8.93
2019-03-06T22:20:37.326Z,11.47
2019-03-06T22:23:03.895Z,17.80
2019-03-06T22:25:30.300Z,10.60
2019-03-06T22:27:56.852Z,13.63
2019-03-06T22:30:23.409Z,7.53
2019-03-06T22:32:50.081Z,6.10
2019-03-06T22:35:16.533Z,8.53
2019-03-06T22:37:43.109Z,7.83
2019-03-06T22:40:11.459Z,7.47
2019-03-06T22:42:37.842Z,5.57
2019-03-06T22:45:05.895Z,6.53
2019-03-06T22:47:32.413Z,6.77
2019-03-06T22:49:58.934Z,6.23
2019-03-06T22:52:25.534Z,7.23
2019-03-06T22:54:52.183Z,6.53
2019-03-06T22:57:18.692Z,6.03
2019-03-06T22:59:45.156Z,9.57
2019-03-06T23:02:11.632Z,9.13
2019-03-06T23:04:38.086Z,6.57
2019-03-06T23:07:04.843Z,6.23
2019-03-06T23:09:31.403Z,8.47
2019-03-06T23:11:57.779Z,6.93
2019-03-06T23:14:24.159Z,7.23
2019-03-06T23:16:50.819Z,5.83
2019-03-06T23:19:17.299Z,5.23
2019-03-06T23:21:43.749Z,5.20
2019-03-06T23:24:10.300Z,4.60
2019-03-06T23:26:42.928Z,5.13
2019-03-06T23:29:05.139Z,7.63
2019-03-06T23:31:31.507Z,6.53
2019-03-06T23:33:58.195Z,4.77
2019-03-06T23:36:24.834Z,10.50
2019-03-06T23:38:51.325Z,5.90
2019-03-06T23:41:18.065Z,5.33
2019-03-06T23:43:44.759Z,7.07
2019-03-06T23:46:11.794Z,7.27
2019-03-06T23:48:39.086Z,5.17
2019-03-06T23:51:07.587Z,5.57
2019-03-06T23:53:35.909Z,3.83
2019-03-06T23:56:02.706Z,6.23
2019-03-06T23:58:29.166Z,7.60
